createdAt,value
2016-05-01T00:00:22.325Z,78.36
2016-05-01T00:01:22.359Z,77.79
2016-05-01T00:02:22.377Z,78.74
2016-05-01T00:03:22.411Z,78.74
2016-05-01T00:04:22.460Z,78.45
2016-05-01T00:05:22.589Z,78.93
2016-05-01T00:06:22.514Z,78.93
2016-05-01T00:07:22.546Z,78.93
2016-05-01T00:08:22.566Z,78.45
2016-05-01T00:09:22.443Z,77.89
2016-05-01T00:10:22.633Z,78.74
2016-05-01T00:11:22.511Z,78.93
2016-05-01T00:12:22.685Z,78.83
2016-05-01T00:13:22.719Z,78.55
2016-05-01T00:14:22.738Z,78.74
2016-05-01T00:15:22.771Z,78.93
2016-05-01T00:16:22.805Z,78.74
2016-05-01T00:17:22.824Z,78.64
2016-05-01T00:18:22.857Z,78.93
2016-05-01T00:19:22.891Z,78.74
2016-05-01T00:20:23.785Z,79.12
2016-05-01T00:21:22.959Z,78.64
2016-05-01T00:22:22.978Z,78.83
2016-05-01T00:23:23.011Z,78.83
2016-05-01T00:24:23.045Z,79.03
2016-05-01T00:25:23.064Z,78.61
2016-05-01T00:26:23.098Z,78.8
2016-05-01T00:27:23.131Z,78.89
2016-05-01T00:28:23.150Z,78.61
2016-05-01T00:29:23.184Z,78.83
2016-05-01T00:30:23.218Z,79.69
2016-05-01T00:31:23.237Z,79.5
2016-05-01T00:32:23.130Z,79.69
2016-05-01T00:33:23.304Z,79.69
2016-05-01T00:34:23.339Z,79.27
2016-05-01T00:35:23.372Z,79.55
2016-05-01T00:36:23.391Z,79.31
2016-05-01T00:37:23.424Z,79.65
2016-05-01T00:38:23.442Z,79.5
2016-05-01T00:39:23.492Z,79.69
2016-05-01T00:40:23.511Z,79.69
2016-05-01T00:41:23.544Z,79.46
2016-05-01T00:42:23.563Z,79.69
2016-05-01T00:43:23.441Z,79.79
2016-05-01T00:44:23.630Z,79.6
2016-05-01T00:45:23.665Z,79.69
2016-05-01T00:46:23.682Z,79.12
2016-05-01T00:47:23.717Z,79.31
2016-05-01T00:48:23.751Z,79.65
2016-05-01T00:49:23.768Z,80.07
2016-05-01T00:50:24.834Z,80.16
2016-05-01T00:51:23.681Z,79.6
2016-05-01T00:52:23.871Z,79.84
2016-05-01T00:53:23.890Z,80.13
2016-05-01T00:54:23.923Z,79.55
2016-05-01T00:55:23.957Z,80.13
2016-05-01T00:56:23.991Z,79.84
2016-05-01T00:57:24.010Z,79.65
2016-05-01T00:58:24.043Z,79.6
2016-05-01T00:59:24.078Z,79.94
2016-05-01T01:00:24.095Z,79.94
2016-05-01T01:01:24.129Z,79.69
2016-05-01T01:02:24.164Z,80.07
2016-05-01T01:03:24.197Z,79.94
2016-05-01T01:04:24.216Z,79.97
2016-05-01T01:05:25.343Z,80.03
2016-05-01T01:06:24.127Z,79.84
2016-05-01T01:07:24.302Z,79.94
2016-05-01T01:08:24.336Z,79.84
2016-05-01T01:09:24.369Z,79.94
2016-05-01T01:10:24.403Z,80.03
2016-05-01T01:11:24.422Z,80.03
2016-05-01T01:12:24.455Z,80.32
2016-05-01T01:13:24.334Z,79.84
2016-05-01T01:14:24.520Z,79.84
2016-05-01T01:15:24.382Z,79.94
2016-05-01T01:16:24.572Z,80.16
2016-05-01T01:17:24.606Z,80.03
2016-05-01T01:18:24.640Z,79.94
2016-05-01T01:19:24.675Z,79.94
2016-05-01T01:20:24.880Z,79.74
2016-05-01T01:21:24.726Z,80.13
2016-05-01T01:22:24.761Z,80.22
2016-05-01T01:23:24.794Z,80.22
2016-05-01T01:24:24.813Z,80.41
2016-05-01T01:25:24.830Z,80.6
2016-05-01T01:26:24.864Z,80.32
2016-05-01T01:27:24.899Z,80.6
2016-05-01T01:28:24.932Z,80.79
2016-05-01T01:29:24.967Z,80.41
2016-05-01T01:30:25.000Z,80.51
2016-05-01T01:31:25.018Z,80.51
2016-05-01T01:32:24.896Z,80.41
2016-05-01T01:33:24.915Z,80.41
2016-05-01T01:34:25.105Z,80.32
2016-05-01T01:35:25.139Z,80.41
2016-05-01T01:36:25.174Z,80.6
2016-05-01T01:37:25.050Z,80.6
2016-05-01T01:38:25.226Z,80.6
2016-05-01T01:39:25.243Z,80.79
2016-05-01T01:40:25.121Z,81.26
2016-05-01T01:41:25.312Z,81.17
2016-05-01T01:42:25.329Z,80.69
2016-05-01T01:43:25.364Z,80.22
2016-05-01T01:44:25.397Z,80.79
2016-05-01T01:45:25.431Z,81.17
2016-05-01T01:46:25.309Z,80.79
2016-05-01T01:47:25.484Z,80.32
2016-05-01T01:48:25.517Z,80.6
2016-05-01T01:49:25.395Z,80.79
2016-05-01T01:50:25.586Z,80.79
2016-05-01T01:51:25.619Z,81.36
2016-05-01T01:52:25.638Z,80.32
2016-05-01T01:53:25.655Z,80.41
2016-05-01T01:54:25.690Z,80.79
2016-05-01T01:55:25.725Z,80.79
2016-05-01T01:56:25.742Z,81.36
2016-05-01T01:57:25.619Z,81.17
2016-05-01T01:58:25.810Z,81.17
2016-05-01T01:59:25.844Z,81.45
2016-05-01T02:00:25.863Z,81.45
2016-05-01T02:01:25.896Z,81.17
2016-05-01T02:02:25.930Z,81.74
2016-05-01T02:03:25.949Z,81.17
2016-05-01T02:04:25.982Z,81.65
2016-05-01T02:05:26.079Z,81.17
2016-05-01T02:06:25.893Z,81.07
2016-05-01T02:07:26.084Z,81.17
2016-05-01T02:08:25.946Z,81.55
2016-05-01T02:09:25.980Z,81.45
2016-05-01T02:10:26.170Z,81.84
2016-05-01T02:11:26.190Z,81.74
2016-05-01T02:12:26.222Z,81.93
2016-05-01T02:13:26.240Z,82.4
2016-05-01T02:14:26.276Z,81.74
2016-05-01T02:15:26.293Z,82.12
2016-05-01T02:16:26.328Z,81.93
2016-05-01T02:17:26.206Z,81.93
2016-05-01T02:18:26.239Z,81.84
2016-05-01T02:19:26.429Z,81.74
2016-05-01T02:20:26.464Z,81.84
2016-05-01T02:21:26.481Z,81.65
2016-05-01T02:22:26.359Z,81.36
2016-05-01T02:23:26.534Z,81.65
2016-05-01T02:24:26.567Z,81.93
2016-05-01T02:25:26.633Z,82.12
2016-05-01T02:26:26.635Z,82.21
2016-05-01T02:27:26.669Z,82.21
2016-05-01T02:28:26.688Z,82.03
2016-05-01T02:29:26.705Z,82.21
2016-05-01T02:30:26.740Z,82.12
2016-05-01T02:31:26.774Z,81.74
2016-05-01T02:32:26.792Z,82.31
2016-05-01T02:33:26.826Z,82.12
2016-05-01T02:34:26.860Z,82.03
2016-05-01T02:35:27.019Z,82.21
2016-05-01T02:36:26.912Z,81.93
2016-05-01T02:37:26.946Z,82.03
2016-05-01T02:38:26.824Z,82.03
2016-05-01T02:39:26.999Z,82.31
2016-05-01T02:40:27.032Z,82.12
2016-05-01T02:41:27.066Z,82.12
2016-05-01T02:42:27.085Z,82.21
2016-05-01T02:43:27.118Z,82.12
2016-05-01T02:44:27.153Z,82.59
2016-05-01T02:45:27.170Z,82.5
2016-05-01T02:46:27.204Z,82.59
2016-05-01T02:47:27.239Z,82.59
2016-05-01T02:48:27.272Z,82.03
2016-05-01T02:49:27.291Z,82.21
2016-05-01T02:50:27.465Z,82.21
2016-05-01T02:51:27.359Z,82.59
2016-05-01T02:52:27.393Z,82.03
2016-05-01T02:53:27.427Z,81.93
2016-05-01T02:54:27.445Z,81.84
2016-05-01T02:55:27.338Z,82.03
2016-05-01T02:56:27.498Z,81.84
2016-05-01T02:57:27.531Z,82.31
2016-05-01T02:58:27.409Z,82.12
2016-05-01T02:59:27.427Z,82.03
2016-05-01T03:00:27.461Z,82.03
2016-05-01T03:01:27.652Z,82.12
2016-05-01T03:02:27.685Z,82.03
2016-05-01T03:03:27.547Z,82.21
2016-05-01T03:04:27.737Z,82.21
2016-05-01T03:05:27.771Z,82.03
2016-05-01T03:06:27.805Z,82.21
2016-05-01T03:07:27.823Z,82.5
2016-05-01T03:08:27.842Z,82.31
2016-05-01T03:09:27.876Z,82.03
2016-05-01T03:10:27.910Z,82.03
2016-05-01T03:11:27.944Z,82.03
2016-05-01T03:12:27.807Z,82.03
2016-05-01T03:13:27.995Z,82.12
2016-05-01T03:14:28.030Z,81.93
2016-05-01T03:15:28.064Z,82.03
2016-05-01T03:16:28.082Z,82.31
2016-05-01T03:17:28.117Z,82.31
2016-05-01T03:18:28.150Z,82.12
2016-05-01T03:19:28.168Z,81.93
2016-05-01T03:20:28.203Z,82.12
2016-05-01T03:21:28.236Z,81.65
2016-05-01T03:22:28.270Z,81.55
2016-05-01T03:23:28.289Z,82.03
2016-05-01T03:24:28.322Z,82.4
2016-05-01T03:25:28.356Z,82.03
2016-05-01T03:26:28.375Z,82.03
2016-05-01T03:27:28.253Z,81.93
2016-05-01T03:28:28.442Z,81.93
2016-05-01T03:29:28.461Z,81.55
2016-05-01T03:30:28.511Z,81.65
2016-05-01T03:31:28.530Z,81.17
2016-05-01T03:32:28.407Z,81.74
2016-05-01T03:33:28.597Z,81.26
2016-05-01T03:34:28.616Z,81.36
2016-05-01T03:35:29.696Z,81.36
2016-05-01T03:36:28.527Z,81.65
2016-05-01T03:37:28.546Z,81.36
2016-05-01T03:38:28.735Z,81.65
2016-05-01T03:39:28.613Z,81.93
2016-05-01T03:40:28.804Z,81.45
2016-05-01T03:41:28.821Z,81.74
2016-05-01T03:42:28.840Z,80.98
2016-05-01T03:43:28.874Z,80.98
2016-05-01T03:44:28.923Z,81.26
2016-05-01T03:45:28.942Z,81.26
2016-05-01T03:46:28.976Z,81.36
2016-05-01T03:47:29.009Z,81.36
2016-05-01T03:48:29.028Z,80.69
2016-05-01T03:49:29.061Z,81.45
2016-05-01T03:50:28.939Z,81.26
2016-05-01T03:51:29.114Z,80.79
2016-05-01T03:52:29.148Z,81.36
2016-05-01T03:53:29.167Z,81.26
2016-05-01T03:54:29.217Z,81.17
2016-05-01T03:55:29.234Z,81.36
2016-05-01T03:56:29.253Z,81.17
2016-05-01T03:57:29.131Z,80.79
2016-05-01T03:58:29.320Z,80.32
2016-05-01T03:59:29.355Z,80.41
2016-05-01T04:00:29.372Z,80.32
2016-05-01T04:01:29.406Z,80.32
2016-05-01T04:02:29.441Z,80.32
2016-05-01T04:03:29.458Z,80.88
2016-05-01T04:04:29.493Z,80.51
2016-05-01T04:05:29.526Z,80.51
2016-05-01T04:06:29.544Z,80.88
2016-05-01T04:07:29.438Z,81.07
2016-05-01T04:08:29.613Z,81.17
2016-05-01T04:09:29.631Z,81.07
2016-05-01T04:10:29.680Z,80.79
2016-05-01T04:11:29.699Z,80.98
2016-05-01T04:12:29.718Z,80.88
2016-05-01T04:13:29.752Z,81.45
2016-05-01T04:14:29.785Z,80.88
2016-05-01T04:15:29.663Z,81.36
2016-05-01T04:16:29.837Z,81.26
2016-05-01T04:17:29.871Z,81.07
2016-05-01T04:18:29.906Z,81.45
2016-05-01T04:19:29.767Z,81.17
2016-05-01T04:20:29.957Z,81.26
2016-05-01T04:21:29.992Z,81.17
2016-05-01T04:22:30.025Z,81.36
2016-05-01T04:23:30.059Z,81.17
2016-05-01T04:24:30.077Z,81.55
2016-05-01T04:25:30.111Z,81.45
2016-05-01T04:26:30.130Z,81.45
2016-05-01T04:27:30.164Z,81.55
2016-05-01T04:28:30.198Z,81.36
2016-05-01T04:29:30.232Z,81.55
2016-05-01T04:30:30.250Z,81.55
2016-05-01T04:31:30.284Z,81.45
2016-05-01T04:32:30.319Z,82.31
2016-05-01T04:33:30.336Z,81.74
2016-05-01T04:34:30.370Z,81.93
2016-05-01T04:35:30.405Z,81.74
2016-05-01T04:36:30.422Z,81.36
2016-05-01T04:37:30.457Z,81.26
2016-05-01T04:38:30.334Z,81.17
2016-05-01T04:39:30.352Z,81.45
2016-05-01T04:40:30.543Z,80.88
2016-05-01T04:41:30.420Z,81.36
2016-05-01T04:42:30.595Z,80.79
2016-05-01T04:43:30.629Z,80.6
2016-05-01T04:44:30.662Z,80.98
2016-05-01T04:45:30.681Z,80.88
2016-05-01T04:46:30.715Z,81.17
2016-05-01T04:47:30.765Z,81.17
2016-05-01T04:48:30.783Z,80.98
2016-05-01T04:49:30.802Z,81.36
2016-05-01T04:50:30.834Z,81.36
2016-05-01T04:51:30.870Z,81.45
2016-05-01T04:52:30.887Z,81.45
2016-05-01T04:53:30.921Z,81.26
2016-05-01T04:54:30.956Z,80.88
2016-05-01T04:55:30.973Z,81.45
2016-05-01T04:56:30.851Z,81.36
2016-05-01T04:57:31.041Z,81.07
2016-05-01T04:58:31.075Z,80.98
2016-05-01T04:59:31.094Z,81.17
2016-05-01T05:00:31.127Z,81.07
2016-05-01T05:01:31.161Z,81.26
2016-05-01T05:02:31.180Z,81.26
2016-05-01T05:03:31.214Z,81.17
2016-05-01T05:04:31.264Z,81.65
2016-05-01T05:05:31.110Z,81.74
2016-05-01T05:06:31.316Z,81.84
2016-05-01T05:07:31.334Z,82.03
2016-05-01T05:08:31.353Z,81.93
2016-05-01T05:09:31.386Z,81.84
2016-05-01T05:10:31.421Z,81.84
2016-05-01T05:11:31.298Z,81.93
2016-05-01T05:12:31.488Z,81.93
2016-05-01T05:13:31.507Z,81.93
2016-05-01T05:14:31.540Z,81.74
2016-05-01T05:15:31.574Z,81.65
2016-05-01T05:16:31.593Z,81.26
2016-05-01T05:17:31.470Z,81.55
2016-05-01T05:18:31.645Z,81.36
2016-05-01T05:19:31.678Z,81.74
2016-05-01T05:20:31.743Z,81.65
2016-05-01T05:21:31.575Z,81.65
2016-05-01T05:22:31.765Z,81.26
2016-05-01T05:23:31.799Z,81.45
2016-05-01T05:24:31.662Z,81.74
2016-05-01T05:25:31.866Z,81.55
2016-05-01T05:26:31.885Z,80.88
2016-05-01T05:27:31.920Z,81.21
2016-05-01T05:28:31.937Z,80.6
2016-05-01T05:29:31.972Z,80.83
2016-05-01T05:30:32.005Z,81.02
2016-05-01T05:31:32.023Z,81.02
2016-05-01T05:32:32.058Z,81.02
2016-05-01T05:33:32.075Z,81.07
2016-05-01T05:34:32.125Z,80.35
2016-05-01T05:35:32.144Z,80.55
2016-05-01T05:36:32.177Z,80.35
2016-05-01T05:37:32.197Z,80.35
2016-05-01T05:38:32.230Z,80.32
2016-05-01T05:39:32.263Z,80.69
2016-05-01T05:40:32.297Z,80.6
2016-05-01T05:41:32.332Z,81.07
2016-05-01T05:42:32.349Z,80.64
2016-05-01T05:43:32.385Z,80.55
2016-05-01T05:44:32.418Z,81.12
2016-05-01T05:45:32.296Z,80.45
2016-05-01T05:46:32.471Z,80.74
2016-05-01T05:47:32.504Z,79.88
2016-05-01T05:48:32.538Z,79.88
2016-05-01T05:49:32.401Z,79.41
2016-05-01T05:50:32.607Z,80.07
2016-05-01T05:51:32.452Z,80.16
2016-05-01T05:52:32.643Z,79.97
2016-05-01T05:53:32.676Z,79.88
2016-05-01T05:54:32.554Z,79.97
2016-05-01T05:55:32.745Z,79.97
2016-05-01T05:56:32.762Z,79.97
2016-05-01T05:57:32.797Z,79.6
2016-05-01T05:58:32.674Z,78.83
2016-05-01T05:59:32.848Z,78.74
2016-05-01T06:00:32.898Z,78.74
2016-05-01T06:01:32.916Z,78.64
2016-05-01T06:02:32.935Z,78.83
2016-05-01T06:03:32.969Z,79.12
2016-05-01T06:04:33.003Z,78.64
2016-05-01T06:05:33.209Z,78.36
2016-05-01T06:06:33.055Z,78.36
2016-05-01T06:07:33.088Z,78.55
2016-05-01T06:08:33.123Z,78.45
2016-05-01T06:09:33.142Z,78.64
2016-05-01T06:10:33.191Z,78.55
2016-05-01T06:11:33.224Z,78.55
2016-05-01T06:12:33.278Z,77.98
2016-05-01T06:13:33.294Z,77.55
2016-05-01T06:14:33.297Z,77.55
2016-05-01T06:15:33.314Z,77.73
2016-05-01T06:16:33.380Z,77.55
2016-05-01T06:17:33.382Z,78.4
2016-05-01T06:18:33.416Z,77.89
2016-05-01T06:19:33.435Z,77.7
2016-05-01T06:20:33.485Z,77.73
2016-05-01T06:21:33.502Z,76.88
2016-05-01T06:22:33.536Z,77.36
2016-05-01T06:23:33.555Z,77.36
2016-05-01T06:24:33.589Z,77.51
2016-05-01T06:25:33.623Z,77.07
2016-05-01T06:26:33.657Z,77.07
2016-05-01T06:27:33.690Z,77.55
2016-05-01T06:28:33.568Z,77.07
2016-05-01T06:29:33.759Z,76.5
2016-05-01T06:30:33.776Z,76.78
2016-05-01T06:31:33.811Z,76.4
2016-05-01T06:32:33.845Z,76.12
2016-05-01T06:33:33.706Z,75.84
2016-05-01T06:34:33.898Z,76.4
2016-05-01T06:35:33.931Z,76.78
2016-05-01T06:36:33.965Z,77.45
2016-05-01T06:37:33.984Z,76.31
2016-05-01T06:38:34.017Z,76.5
2016-05-01T06:39:34.051Z,75.26
2016-05-01T06:40:34.085Z,74.51
2016-05-01T06:41:34.120Z,74.69
2016-05-01T06:42:34.137Z,74.51
2016-05-01T06:43:34.172Z,73.93
2016-05-01T06:44:34.205Z,74.26
2016-05-01T06:45:34.083Z,74.35
2016-05-01T06:46:34.258Z,73.49
2016-05-01T06:47:34.135Z,73.78
2016-05-01T06:48:34.325Z,73.59
2016-05-01T06:49:34.359Z,74.07
2016-05-01T06:50:34.422Z,73.93
2016-05-01T06:51:34.481Z,74.51
2016-05-01T06:52:34.574Z,73.97
2016-05-01T06:53:34.635Z,73.69
2016-05-01T06:54:34.555Z,73.59
2016-05-01T06:55:34.770Z,73.55
2016-05-01T06:56:34.804Z,74.31
2016-05-01T06:57:34.853Z,73.65
2016-05-01T06:58:34.902Z,74.12
2016-05-01T06:59:34.953Z,73.65
2016-05-01T07:00:34.978Z,74.26
2016-05-01T07:01:35.034Z,73.69
2016-05-01T07:02:34.901Z,73.49
2016-05-01T07:03:35.097Z,73.02
2016-05-01T07:04:35.136Z,73.59
2016-05-01T07:05:35.174Z,73.02
2016-05-01T07:06:35.193Z,72.74
2016-05-01T07:07:35.229Z,72.35
2016-05-01T07:08:35.266Z,72.26
2016-05-01T07:09:35.301Z,72.83
2016-05-01T07:10:35.447Z,72.35
2016-05-01T07:11:35.370Z,71.59
2016-05-01T07:12:35.391Z,70.74
2016-05-01T07:13:35.424Z,70.17
2016-05-01T07:14:35.475Z,70.64
2016-05-01T07:15:35.494Z,71.41
2016-05-01T07:16:35.529Z,71.5
2016-05-01T07:17:35.562Z,71.22
2016-05-01T07:18:35.582Z,70.93
2016-05-01T07:19:35.615Z,70.17
2016-05-01T07:20:35.682Z,69.98
2016-05-01T07:21:35.684Z,69.69
2016-05-01T07:22:35.718Z,69.69
2016-05-01T07:23:35.580Z,69.69
2016-05-01T07:24:35.770Z,68.93
2016-05-01T07:25:35.804Z,69.41
2016-05-01T07:26:35.837Z,70.07
2016-05-01T07:27:35.856Z,70.54
2016-05-01T07:28:35.906Z,70.07
2016-05-01T07:29:35.924Z,70.17
2016-05-01T07:30:35.801Z,69.21
2016-05-01T07:31:35.992Z,69.5
2016-05-01T07:32:36.026Z,69.21
2016-05-01T07:33:36.045Z,69.21
2016-05-01T07:34:36.094Z,68.46
2016-05-01T07:35:35.987Z,68.68
2016-05-01T07:36:36.161Z,67.73
2016-05-01T07:37:36.181Z,67.38
2016-05-01T07:38:36.214Z,66.87
2016-05-01T07:39:36.247Z,66.43
2016-05-01T07:40:36.266Z,65.29
2016-05-01T07:41:36.300Z,66.05
2016-05-01T07:42:36.334Z,65.48
2016-05-01T07:43:36.368Z,65.1
2016-05-01T07:44:36.402Z,65.48
2016-05-01T07:45:36.436Z,65.38
2016-05-01T07:46:36.470Z,65.86
2016-05-01T07:47:36.347Z,66.53
2016-05-01T07:48:36.382Z,66.68
2016-05-01T07:49:36.571Z,66.24
2016-05-01T07:50:36.431Z,65.58
2016-05-01T07:51:36.640Z,65.19
2016-05-01T07:52:36.673Z,64.72
2016-05-01T07:53:36.692Z,64.81
2016-05-01T07:54:36.741Z,64.81
2016-05-01T07:55:36.776Z,63.96
2016-05-01T07:56:36.793Z,62.85
2016-05-01T07:57:36.828Z,61.04
2016-05-01T07:58:36.862Z,59.45
2016-05-01T07:59:37.115Z,56.84
2016-05-01T08:00:36.929Z,53.81
2016-05-01T08:01:36.964Z,50.81
2016-05-01T08:02:36.981Z,49.14
2016-05-01T08:03:36.872Z,50.19
2016-05-01T08:04:37.047Z,52.69
2016-05-01T08:05:37.096Z,53.17
2016-05-01T08:06:37.115Z,52.31
2016-05-01T08:07:37.164Z,53.1
2016-05-01T08:08:37.197Z,51.45
2016-05-01T08:09:37.233Z,50.33
2016-05-01T08:10:37.111Z,51.48
2016-05-01T08:11:37.300Z,52.15
2016-05-01T08:12:37.334Z,51.19
2016-05-01T08:13:37.368Z,49.3
2016-05-01T08:14:37.417Z,49.02
2016-05-01T08:15:37.451Z,48.66
2016-05-01T08:16:37.485Z,49.02
2016-05-01T08:17:37.519Z,51.86
2016-05-01T08:18:37.553Z,51.74
2016-05-01T08:19:37.602Z,50.62
2016-05-01T08:20:37.637Z,49.88
2016-05-01T08:21:37.671Z,48.75
2016-05-01T08:22:37.705Z,46.94
2016-05-01T08:23:37.739Z,47.34
2016-05-01T08:24:37.788Z,46.01
2016-05-01T08:25:37.821Z,48.85
2016-05-01T08:26:37.856Z,49.11
2016-05-01T08:27:37.906Z,50.26
2016-05-01T08:28:37.939Z,51.67
2016-05-01T08:29:37.974Z,51.26
2016-05-01T08:30:38.008Z,53.33
2016-05-01T08:31:38.042Z,54.29
2016-05-01T08:32:38.106Z,52.76
2016-05-01T08:33:38.126Z,52.22
2016-05-01T08:34:38.159Z,52.12
2016-05-01T08:35:38.209Z,51.35
2016-05-01T08:36:38.243Z,50.04
2016-05-01T08:37:38.120Z,49.49
2016-05-01T08:38:38.311Z,48.73
2016-05-01T08:39:38.360Z,48.28
2016-05-01T08:40:38.394Z,47.73
2016-05-01T08:41:38.427Z,47.25
2016-05-01T08:42:38.478Z,48.38
2016-05-01T08:43:38.511Z,48.73
2016-05-01T08:44:38.544Z,48.75
2016-05-01T08:45:38.594Z,49.69
2016-05-01T08:46:38.613Z,49.88
2016-05-01T08:47:38.506Z,50.33
2016-05-01T08:48:38.697Z,49.95
2016-05-01T08:49:38.730Z,49.98
2016-05-01T08:50:38.624Z,49.88
2016-05-01T08:51:38.813Z,49.59
2016-05-01T08:52:38.848Z,49.59
2016-05-01T08:53:38.741Z,50.26
2016-05-01T08:54:38.931Z,49.59
2016-05-01T08:55:38.966Z,49.98
2016-05-01T08:56:38.999Z,51.09
2016-05-01T08:57:39.064Z,52.53
2016-05-01T08:58:39.099Z,53.33
2016-05-01T08:59:39.132Z,53.27
2016-05-01T09:00:39.166Z,53.14
2016-05-01T09:01:39.201Z,53.72
2016-05-01T09:02:39.250Z,54.19
2016-05-01T09:03:39.283Z,54.38
2016-05-01T09:04:39.318Z,56.17
2016-05-01T09:05:39.367Z,56.84
2016-05-01T09:06:39.401Z,57.48
2016-05-01T09:07:39.435Z,56.52
2016-05-01T09:08:39.328Z,55.31
2016-05-01T09:09:39.503Z,56.17
2016-05-01T09:10:39.536Z,56.46
2016-05-01T09:11:39.430Z,54.45
2016-05-01T09:12:39.620Z,53.62
2016-05-01T09:13:39.639Z,51.62
2016-05-01T09:14:39.688Z,51.43
2016-05-01T09:15:39.722Z,50.57
2016-05-01T09:16:39.756Z,49.57
2016-05-01T09:17:39.806Z,49.85
2016-05-01T09:18:39.839Z,50.71
2016-05-01T09:19:39.874Z,50.21
2016-05-01T09:20:39.752Z,49.76
2016-05-01T09:21:39.942Z,49.73
2016-05-01T09:22:39.991Z,49.18
2016-05-01T09:23:40.014Z,47.2
2016-05-01T09:24:40.048Z,45.31
2016-05-01T09:25:40.098Z,45.81
2016-05-01T09:26:40.115Z,47.11
2016-05-01T09:27:40.166Z,46.25
2016-05-01T09:28:40.074Z,46.42
2016-05-01T09:29:40.234Z,45.67
2016-05-01T09:30:40.284Z,45.41
2016-05-01T09:31:40.301Z,45.96
2016-05-01T09:32:40.350Z,47.56
2016-05-01T09:33:40.385Z,47.75
2016-05-01T09:34:40.419Z,48.71
2016-05-01T09:35:40.453Z,47.85
2016-05-01T09:36:40.346Z,47.97
2016-05-01T09:37:40.537Z,46.34
2016-05-01T09:38:40.570Z,45.89
2016-05-01T09:39:40.604Z,44.65
2016-05-01T09:40:40.653Z,43.71
2016-05-01T09:41:40.688Z,44.48
2016-05-01T09:42:40.721Z,45.12
2016-05-01T09:43:40.756Z,43.98
2016-05-01T09:44:40.806Z,43.23
2016-05-01T09:45:40.839Z,42.87
2016-05-01T09:46:40.889Z,42.99
2016-05-01T09:47:40.922Z,43.44
2016-05-01T09:48:40.972Z,43.83
2016-05-01T09:49:41.006Z,44.12
2016-05-01T09:50:40.883Z,42.97
2016-05-01T09:51:41.074Z,42.97
2016-05-01T09:52:40.952Z,44.67
2016-05-01T09:53:41.158Z,45.89
2016-05-01T09:54:41.191Z,46.06
2016-05-01T09:55:41.225Z,46.06
2016-05-01T09:56:41.119Z,45.84
2016-05-01T09:57:41.324Z,46.51
2016-05-01T09:58:41.201Z,47.11
2016-05-01T09:59:41.393Z,47.08
2016-05-01T10:00:41.443Z,45.96
2016-05-01T10:01:41.476Z,46.34
2016-05-01T10:02:41.526Z,45.89
2016-05-01T10:03:41.559Z,45.89
2016-05-01T10:04:41.609Z,46.17
2016-05-01T10:05:41.971Z,46.25
2016-05-01T10:06:41.676Z,45.87
2016-05-01T10:07:41.712Z,45.31
2016-05-01T10:08:41.776Z,45.12
2016-05-01T10:09:41.809Z,44.48
2016-05-01T10:10:41.844Z,43.9
2016-05-01T10:11:41.878Z,43.83
2016-05-01T10:12:41.912Z,44.76
2016-05-01T10:13:41.805Z,45.51
2016-05-01T10:14:42.010Z,46.25
2016-05-01T10:15:42.045Z,45.98
2016-05-01T10:16:42.079Z,43.43
2016-05-01T10:17:42.128Z,42.4
2016-05-01T10:18:42.006Z,41.72
2016-05-01T10:19:42.211Z,41.82
2016-05-01T10:20:42.527Z,42.49
2016-05-01T10:21:42.280Z,41.91
2016-05-01T10:22:42.330Z,40.41
2016-05-01T10:23:42.364Z,39.64
2016-05-01T10:24:42.241Z,39.83
2016-05-01T10:25:42.447Z,40.09
2016-05-01T10:26:42.496Z,39.73
2016-05-01T10:27:42.546Z,39.85
2016-05-01T10:28:42.423Z,41.74
2016-05-01T10:29:42.613Z,42.77
2016-05-01T10:30:42.491Z,42.49
2016-05-01T10:31:42.713Z,42.77
2016-05-01T10:32:42.576Z,43.43
2016-05-01T10:33:42.640Z,43.63
2016-05-01T10:34:42.831Z,42.58
2016-05-01T10:35:42.723Z,40.21
2016-05-01T10:36:42.914Z,39.75
2016-05-01T10:37:42.947Z,39.37
2016-05-01T10:38:42.998Z,38.89
2016-05-01T10:39:43.048Z,37.95
2016-05-01T10:40:43.081Z,38.62
2016-05-01T10:41:43.130Z,37.76
2016-05-01T10:42:43.164Z,37.3
2016-05-01T10:43:43.229Z,37.32
2016-05-01T10:44:43.248Z,36.34
2016-05-01T10:45:43.298Z,35.97
2016-05-01T10:46:43.175Z,36.93
2016-05-01T10:47:43.225Z,37.18
2016-05-01T10:48:43.430Z,38.07
2016-05-01T10:49:43.464Z,38.03
2016-05-01T10:50:43.513Z,37.66
2016-05-01T10:51:43.563Z,36.91
2016-05-01T10:52:43.598Z,36.74
2016-05-01T10:53:43.632Z,38.53
2016-05-01T10:54:43.681Z,38.24
2016-05-01T10:55:43.730Z,37.78
2016-05-01T10:56:43.765Z,37.78
2016-05-01T10:57:43.813Z,36.84
2016-05-01T10:58:43.879Z,38.26
2016-05-01T10:59:43.913Z,37.78
2016-05-01T11:00:43.946Z,37.11
2016-05-01T11:01:43.996Z,37.87
2016-05-01T11:02:44.031Z,37.66
2016-05-01T11:03:43.924Z,36.53
2016-05-01T11:04:44.129Z,35.97
2016-05-01T11:05:44.179Z,36.26
2016-05-01T11:06:44.213Z,37.97
2016-05-01T11:07:44.262Z,39.08
2016-05-01T11:08:44.312Z,39.73
2016-05-01T11:09:44.190Z,38.59
2016-05-01T11:10:44.395Z,39.73
2016-05-01T11:11:44.445Z,39.14
2016-05-01T11:12:44.495Z,37.93
2016-05-01T11:13:44.529Z,36.24
2016-05-01T11:14:44.578Z,35.49
2016-05-01T11:15:44.612Z,37.47
2016-05-01T11:16:44.678Z,37.65
2016-05-01T11:17:44.711Z,37.74
2016-05-01T11:18:44.745Z,38.12
2016-05-01T11:19:44.811Z,39.65
2016-05-01T11:20:45.361Z,40.67
2016-05-01T11:21:44.738Z,41.91
2016-05-01T11:22:44.928Z,40.29
2016-05-01T11:23:44.978Z,39.08
2016-05-01T11:24:45.011Z,39.37
2016-05-01T11:25:45.061Z,37.93
2016-05-01T11:26:45.111Z,37.2
2016-05-01T11:27:45.160Z,36.36
2016-05-01T11:28:45.038Z,36.93
2016-05-01T11:29:45.244Z,36.36
2016-05-01T11:30:45.294Z,35.88
2016-05-01T11:31:45.327Z,35.51
2016-05-01T11:32:45.377Z,35.71
2016-05-01T11:33:45.426Z,34.84
2016-05-01T11:34:45.460Z,34.38
2016-05-01T11:35:45.354Z,34.09
2016-05-01T11:36:45.560Z,32.86
2016-05-01T11:37:45.609Z,32.67
2016-05-01T11:38:45.643Z,32.78
2016-05-01T11:39:45.693Z,33.34
2016-05-01T11:40:45.742Z,33.99
2016-05-01T11:41:45.636Z,33.03
2016-05-01T11:42:45.842Z,33.23
2016-05-01T11:43:45.875Z,35.8
2016-05-01T11:44:45.925Z,35.99
2016-05-01T11:45:45.974Z,37.13
2016-05-01T11:46:46.024Z,38.05
2016-05-01T11:47:46.058Z,37.2
2016-05-01T11:48:46.123Z,36.24
2016-05-01T11:49:46.000Z,36.36
2016-05-01T11:50:46.207Z,35.97
2016-05-01T11:51:46.256Z,35.32
2016-05-01T11:52:46.305Z,35.22
2016-05-01T11:53:46.356Z,35.53
2016-05-01T11:54:46.405Z,34.82
2016-05-01T11:55:46.439Z,33.98
2016-05-01T11:56:46.488Z,33.61
2016-05-01T11:57:46.538Z,32.75
2016-05-01T11:58:46.416Z,33.15
2016-05-01T11:59:46.621Z,33.98
2016-05-01T12:00:46.671Z,33.98
2016-05-01T12:01:46.721Z,33.31
2016-05-01T12:02:46.770Z,33.01
2016-05-01T12:03:46.820Z,32.84
2016-05-01T12:04:46.854Z,32.55
2016-05-01T12:05:46.903Z,32.86
2016-05-01T12:06:46.953Z,33.13
2016-05-01T12:07:47.001Z,34.38
2016-05-01T12:08:46.896Z,36.07
2016-05-01T12:09:47.102Z,35.97
2016-05-01T12:10:47.151Z,35.88
2016-05-01T12:11:47.185Z,37.03
2016-05-01T12:12:47.234Z,36.91
2016-05-01T12:13:47.284Z,37.99
2016-05-01T12:14:47.318Z,38.91
2016-05-01T12:15:47.367Z,39.65
2016-05-01T12:16:47.417Z,37.85
2016-05-01T12:17:47.466Z,37.2
2016-05-01T12:18:47.500Z,37.97
2016-05-01T12:19:47.550Z,38.16
2016-05-01T12:20:47.444Z,36.91
2016-05-01T12:21:47.650Z,37.59
2016-05-01T12:22:47.700Z,38.53
2016-05-01T12:23:47.749Z,38.98
2016-05-01T12:24:47.782Z,37.76
2016-05-01T12:25:47.832Z,36.82
2016-05-01T12:26:47.882Z,36.84
2016-05-01T12:27:47.931Z,35.88
2016-05-01T12:28:47.965Z,37.34
2016-05-01T12:29:48.030Z,38.05
2016-05-01T12:30:48.063Z,38.54
2016-05-01T12:31:48.114Z,38.53
2016-05-01T12:32:48.163Z,38.43
2016-05-01T12:33:48.213Z,38.05
2016-05-01T12:34:48.247Z,38.53
2016-05-01T12:35:48.406Z,37.68
2016-05-01T12:36:48.346Z,37.59
2016-05-01T12:37:48.411Z,37.01
2016-05-01T12:38:48.429Z,37.6
2016-05-01T12:39:48.495Z,38.07
2016-05-01T12:40:48.529Z,39.39
2016-05-01T12:41:48.578Z,41.09
2016-05-01T12:42:48.628Z,41.84
2016-05-01T12:43:48.678Z,43.54
2016-05-01T12:44:48.711Z,43.04
2016-05-01T12:45:48.761Z,40.78
2016-05-01T12:46:48.794Z,38.41
2016-05-01T12:47:48.844Z,37.68
2016-05-01T12:48:48.895Z,36.84
2016-05-01T12:49:48.944Z,35.99
2016-05-01T12:50:50.493Z,34.55
2016-05-01T12:51:49.011Z,33.8
2016-05-01T12:52:49.077Z,34.19
2016-05-01T12:53:49.110Z,34.28
2016-05-01T12:54:49.160Z,33.99